sensor_id;sensor_type;location;lat;lon;timestamp;temperature;humidity
17348;DHT22;8791;50.876;4.342;2023-03-15T00:00:05;4.90;99.90
17348;DHT22;8791;50.876;4.342;2023-03-15T00:02:34;4.80;99.90
17348;DHT22;8791;50.876;4.342;2023-03-15T00:05:01;5.00;99.90
17348;DHT22;8791;50.876;4.342;2023-03-15T00:07:28;5.20;99.90
17348;DHT22;8791;50.876;4.342;2023-03-15T00:09:56;5.20;99.90
17348;DHT22;8791;50.876;4.342;2023-03-15T00:12:22;5.30;99.90
17348;DHT22;8791;50.876;4.342;2023-03-15T00:14:50;5.60;99.90
17348;DHT22;8791;50.876;4.342;2023-03-15T00:17:18;5.70;99.90
17348;DHT22;8791;50.876;4.342;2023-03-15T00:19:47;5.90;99.90
17348;DHT22;8791;50.876;4.342;2023-03-15T00:22:14;5.70;99.90
17348;DHT22;8791;50.876;4.342;2023-03-15T00:24:40;5.70;99.90
17348;DHT22;8791;50.876;4.342;2023-03-15T00:27:07;5.90;99.90
17348;DHT22;8791;50.876;4.342;2023-03-15T00:29:34;5.80;99.90
17348;DHT22;8791;50.876;4.342;2023-03-15T00:32:01;5.80;99.90
17348;DHT22;8791;50.876;4.342;2023-03-15T00:34:31;5.80;99.90
17348;DHT22;8791;50.876;4.342;2023-03-15T00:36:58;5.80;99.90
17348;DHT22;8791;50.876;4.342;2023-03-15T00:39:25;5.70;99.90
17348;DHT22;8791;50.876;4.342;2023-03-15T00:41:52;5.80;99.90
17348;DHT22;8791;50.876;4.342;2023-03-15T00:44:22;5.90;99.90
17348;DHT22;8791;50.876;4.342;2023-03-15T00:46:49;5.50;99.90
17348;DHT22;8791;50.876;4.342;2023-03-15T00:49:16;5.50;99.90
17348;DHT22;8791;50.876;4.342;2023-03-15T00:51:45;5.60;99.90
17348;DHT22;8791;50.876;4.342;2023-03-15T00:54:11;5.60;99.90
17348;DHT22;8791;50.876;4.342;2023-03-15T00:56:39;5.60;99.90
17348;DHT22;8791;50.876;4.342;2023-03-15T00:59:06;5.50;99.90
17348;DHT22;8791;50.876;4.342;2023-03-15T01:01:33;5.40;99.90
17348;DHT22;8791;50.876;4.342;2023-03-15T01:04:00;5.60;99.90
17348;DHT22;8791;50.876;4.342;2023-03-15T01:06:28;5.60;99.90
17348;DHT22;8791;50.876;4.342;2023-03-15T01:08:56;5.60;99.90
17348;DHT22;8791;50.876;4.342;2023-03-15T01:11:24;5.80;99.90
17348;DHT22;8791;50.876;4.342;2023-03-15T01:13:52;5.80;99.90
17348;DHT22;8791;50.876;4.342;2023-03-15T01:16:20;5.60;99.90
17348;DHT22;8791;50.876;4.342;2023-03-15T01:18:47;5.60;99.90
17348;DHT22;8791;50.876;4.342;2023-03-15T01:21:16;5.50;99.90
17348;DHT22;8791;50.876;4.342;2023-03-15T01:23:43;5.30;99.90
17348;DHT22;8791;50.876;4.342;2023-03-15T01:26:13;5.30;99.90
17348;DHT22;8791;50.876;4.342;2023-03-15T01:28:40;5.20;99.90
17348;DHT22;8791;50.876;4.342;2023-03-15T01:31:09;5.20;99.90
17348;DHT22;8791;50.876;4.342;2023-03-15T01:33:40;5.00;99.90
17348;DHT22;8791;50.876;4.342;2023-03-15T01:36:07;5.10;99.90
17348;DHT22;8791;50.876;4.342;2023-03-15T01:38:34;5.00;99.90
17348;DHT22;8791;50.876;4.342;2023-03-15T01:41:00;5.10;99.90
17348;DHT22;8791;50.876;4.342;2023-03-15T01:43:30;5.10;99.90
17348;DHT22;8791;50.876;4.342;2023-03-15T01:46:15;5.10;99.90
17348;DHT22;8791;50.876;4.342;2023-03-15T01:48:46;5.10;99.90
17348;DHT22;8791;50.876;4.342;2023-03-15T01:51:18;5.20;99.90
17348;DHT22;8791;50.876;4.342;2023-03-15T01:53:50;5.10;99.90
17348;DHT22;8791;50.876;4.342;2023-03-15T01:56:21;5.20;99.90
17348;DHT22;8791;50.876;4.342;2023-03-15T01:58:51;5.30;99.90
17348;DHT22;8791;50.876;4.342;2023-03-15T02:01:19;5.40;99.90
17348;DHT22;8791;50.876;4.342;2023-03-15T02:03:50;5.30;99.90
17348;DHT22;8791;50.876;4.342;2023-03-15T02:06:21;5.20;99.90
17348;DHT22;8791;50.876;4.342;2023-03-15T02:08:51;5.20;99.90
17348;DHT22;8791;50.876;4.342;2023-03-15T02:11:21;5.20;99.90
17348;DHT22;8791;50.876;4.342;2023-03-15T02:13:52;5.50;99.90
17348;DHT22;8791;50.876;4.342;2023-03-15T02:16:20;5.40;99.90
17348;DHT22;8791;50.876;4.342;2023-03-15T02:18:47;5.40;99.90
17348;DHT22;8791;50.876;4.342;2023-03-15T02:21:24;5.40;99.90
17348;DHT22;8791;50.876;4.342;2023-03-15T02:23:58;5.50;99.90
17348;DHT22;8791;50.876;4.342;2023-03-15T02:26:32;5.70;99.90
17348;DHT22;8791;50.876;4.342;2023-03-15T02:29:01;5.70;99.90
17348;DHT22;8791;50.876;4.342;2023-03-15T02:31:28;5.70;99.90
17348;DHT22;8791;50.876;4.342;2023-03-15T02:34:02;5.70;99.90
17348;DHT22;8791;50.876;4.342;2023-03-15T02:36:30;5.70;99.90
17348;DHT22;8791;50.876;4.342;2023-03-15T02:38:57;5.50;99.90
17348;DHT22;8791;50.876;4.342;2023-03-15T02:41:28;5.40;99.90
17348;DHT22;8791;50.876;4.342;2023-03-15T02:43:59;5.50;99.90
17348;DHT22;8791;50.876;4.342;2023-03-15T02:46:29;5.40;99.90
17348;DHT22;8791;50.876;4.342;2023-03-15T02:48:56;5.60;99.90
17348;DHT22;8791;50.876;4.342;2023-03-15T02:51:26;5.70;99.90
17348;DHT22;8791;50.876;4.342;2023-03-15T02:53:54;5.60;99.90
17348;DHT22;8791;50.876;4.342;2023-03-15T02:56:21;5.40;99.90
17348;DHT22;8791;50.876;4.342;2023-03-15T02:58:49;5.50;99.90
17348;DHT22;8791;50.876;4.342;2023-03-15T03:01:17;5.50;99.90
17348;DHT22;8791;50.876;4.342;2023-03-15T03:03:46;5.40;99.90
17348;DHT22;8791;50.876;4.342;2023-03-15T03:06:14;5.50;99.90
17348;DHT22;8791;50.876;4.342;2023-03-15T03:08:41;5.50;99.90
17348;DHT22;8791;50.876;4.342;2023-03-15T03:11:11;5.60;99.90
17348;DHT22;8791;50.876;4.342;2023-03-15T03:13:39;5.70;99.90
17348;DHT22;8791;50.876;4.342;2023-03-15T03:16:06;5.80;99.90
17348;DHT22;8791;50.876;4.342;2023-03-15T03:18:33;5.80;99.90
17348;DHT22;8791;50.876;4.342;2023-03-15T03:21:03;5.70;99.90
17348;DHT22;8791;50.876;4.342;2023-03-15T03:23:32;5.70;99.90
17348;DHT22;8791;50.876;4.342;2023-03-15T03:26:00;5.80;99.90
17348;DHT22;8791;50.876;4.342;2023-03-15T03:28:29;6.00;99.90
17348;DHT22;8791;50.876;4.342;2023-03-15T03:30:56;6.00;99.90
17348;DHT22;8791;50.876;4.342;2023-03-15T03:33:24;6.00;99.90
17348;DHT22;8791;50.876;4.342;2023-03-15T03:35:51;5.90;99.90
17348;DHT22;8791;50.876;4.342;2023-03-15T03:38:20;5.90;99.90
17348;DHT22;8791;50.876;4.342;2023-03-15T03:40:47;6.00;99.90
17348;DHT22;8791;50.876;4.342;2023-03-15T03:43:13;5.90;99.90
17348;DHT22;8791;50.876;4.342;2023-03-15T03:45:40;5.90;99.90
17348;DHT22;8791;50.876;4.342;2023-03-15T03:48:07;5.70;99.90
17348;DHT22;8791;50.876;4.342;2023-03-15T03:50:34;5.60;99.90
17348;DHT22;8791;50.876;4.342;2023-03-15T03:53:00;5.60;99.90
17348;DHT22;8791;50.876;4.342;2023-03-15T03:55:29;5.50;99.90
17348;DHT22;8791;50.876;4.342;2023-03-15T03:57:58;5.60;99.90
17348;DHT22;8791;50.876;4.342;2023-03-15T04:00:25;5.30;99.90
17348;DHT22;8791;50.876;4.342;2023-03-15T04:02:52;5.40;99.90
17348;DHT22;8791;50.876;4.342;2023-03-15T04:05:19;5.30;99.90
17348;DHT22;8791;50.876;4.342;2023-03-15T04:07:46;5.30;99.90
17348;DHT22;8791;50.876;4.342;2023-03-15T04:10:13;5.40;99.90
17348;DHT22;8791;50.876;4.342;2023-03-15T04:12:42;5.40;99.90
17348;DHT22;8791;50.876;4.342;2023-03-15T04:15:10;5.40;99.90
17348;DHT22;8791;50.876;4.342;2023-03-15T04:17:37;5.30;99.90
17348;DHT22;8791;50.876;4.342;2023-03-15T04:20:05;5.20;99.90
17348;DHT22;8791;50.876;4.342;2023-03-15T04:22:33;5.30;99.90
17348;DHT22;8791;50.876;4.342;2023-03-15T04:25:00;5.30;99.90
17348;DHT22;8791;50.876;4.342;2023-03-15T04:27:27;5.30;99.90
17348;DHT22;8791;50.876;4.342;2023-03-15T04:29:56;5.30;99.90
17348;DHT22;8791;50.876;4.342;2023-03-15T04:32:23;5.30;99.90
17348;DHT22;8791;50.876;4.342;2023-03-15T04:34:49;5.30;99.90
17348;DHT22;8791;50.876;4.342;2023-03-15T04:37:17;5.30;99.90
17348;DHT22;8791;50.876;4.342;2023-03-15T04:39:43;5.40;99.90
17348;DHT22;8791;50.876;4.342;2023-03-15T04:42:10;5.40;99.90
17348;DHT22;8791;50.876;4.342;2023-03-15T04:44:37;5.40;99.90
17348;DHT22;8791;50.876;4.342;2023-03-15T04:47:05;5.30;99.90
17348;DHT22;8791;50.876;4.342;2023-03-15T04:49:32;5.40;99.90
17348;DHT22;8791;50.876;4.342;2023-03-15T04:51:59;5.30;99.90
17348;DHT22;8791;50.876;4.342;2023-03-15T04:54:26;5.20;99.90
17348;DHT22;8791;50.876;4.342;2023-03-15T04:56:53;5.10;99.90
17348;DHT22;8791;50.876;4.342;2023-03-15T04:59:20;5.00;99.90
17348;DHT22;8791;50.876;4.342;2023-03-15T05:01:46;5.00;99.90
17348;DHT22;8791;50.876;4.342;2023-03-15T05:04:14;5.00;99.90
17348;DHT22;8791;50.876;4.342;2023-03-15T05:06:41;4.90;99.90
17348;DHT22;8791;50.876;4.342;2023-03-15T05:09:08;4.70;99.90
17348;DHT22;8791;50.876;4.342;2023-03-15T05:11:43;4.80;99.90
17348;DHT22;8791;50.876;4.342;2023-03-15T05:14:10;4.90;99.90
17348;DHT22;8791;50.876;4.342;2023-03-15T05:16:37;4.90;99.90
17348;DHT22;8791;50.876;4.342;2023-03-15T05:19:04;4.80;99.90
17348;DHT22;8791;50.876;4.342;2023-03-15T05:21:32;4.90;99.90
17348;DHT22;8791;50.876;4.342;2023-03-15T05:23:59;4.90;99.90
17348;DHT22;8791;50.876;4.342;2023-03-15T05:26:26;4.80;99.90
17348;DHT22;8791;50.876;4.342;2023-03-15T05:28:52;4.80;99.90
17348;DHT22;8791;50.876;4.342;2023-03-15T05:31:19;4.80;99.90
17348;DHT22;8791;50.876;4.342;2023-03-15T05:33:46;4.70;99.90
17348;DHT22;8791;50.876;4.342;2023-03-15T05:36:13;4.70;99.90
17348;DHT22;8791;50.876;4.342;2023-03-15T05:38:41;4.80;99.90
17348;DHT22;8791;50.876;4.342;2023-03-15T05:41:08;4.70;99.90
17348;DHT22;8791;50.876;4.342;2023-03-15T05:43:35;4.70;99.90
17348;DHT22;8791;50.876;4.342;2023-03-15T05:46:02;4.70;99.90
17348;DHT22;8791;50.876;4.342;2023-03-15T05:48:29;4.80;99.90
17348;DHT22;8791;50.876;4.342;2023-03-15T05:50:56;4.90;99.90
17348;DHT22;8791;50.876;4.342;2023-03-15T05:53:23;4.80;99.90
17348;DHT22;8791;50.876;4.342;2023-03-15T05:55:51;4.90;99.90
17348;DHT22;8791;50.876;4.342;2023-03-15T05:58:18;4.80;99.90
17348;DHT22;8791;50.876;4.342;2023-03-15T06:00:45;4.60;99.90
17348;DHT22;8791;50.876;4.342;2023-03-15T06:03:13;4.70;99.90
17348;DHT22;8791;50.876;4.342;2023-03-15T06:05:40;4.70;99.90
17348;DHT22;8791;50.876;4.342;2023-03-15T06:08:07;4.70;99.90
17348;DHT22;8791;50.876;4.342;2023-03-15T06:10:34;4.80;99.90
17348;DHT22;8791;50.876;4.342;2023-03-15T06:13:02;4.80;99.90
17348;DHT22;8791;50.876;4.342;2023-03-15T06:15:30;4.70;99.90
17348;DHT22;8791;50.876;4.342;2023-03-15T06:17:56;4.60;99.90
17348;DHT22;8791;50.876;4.342;2023-03-15T06:20:23;4.50;99.90
17348;DHT22;8791;50.876;4.342;2023-03-15T06:22:50;4.40;99.90
17348;DHT22;8791;50.876;4.342;2023-03-15T06:25:17;4.30;99.90
17348;DHT22;8791;50.876;4.342;2023-03-15T06:27:44;4.30;99.90
17348;DHT22;8791;50.876;4.342;2023-03-15T06:30:13;4.60;99.90
17348;DHT22;8791;50.876;4.342;2023-03-15T06:32:40;4.60;99.90
17348;DHT22;8791;50.876;4.342;2023-03-15T06:35:07;4.50;99.90
17348;DHT22;8791;50.876;4.342;2023-03-15T06:37:34;4.50;99.90
17348;DHT22;8791;50.876;4.342;2023-03-15T06:40:02;4.80;99.90
17348;DHT22;8791;50.876;4.342;2023-03-15T06:42:32;4.90;99.90
17348;DHT22;8791;50.876;4.342;2023-03-15T06:44:59;4.70;99.90
17348;DHT22;8791;50.876;4.342;2023-03-15T06:47:27;4.70;99.90
17348;DHT22;8791;50.876;4.342;2023-03-15T06:49:54;4.80;99.90
17348;DHT22;8791;50.876;4.342;2023-03-15T06:52:21;4.90;99.90
17348;DHT22;8791;50.876;4.342;2023-03-15T06:54:48;4.90;99.90
17348;DHT22;8791;50.876;4.342;2023-03-15T06:57:15;4.90;99.90
17348;DHT22;8791;50.876;4.342;2023-03-15T06:59:42;4.90;99.90
17348;DHT22;8791;50.876;4.342;2023-03-15T07:02:12;5.00;99.90
17348;DHT22;8791;50.876;4.342;2023-03-15T07:04:41;5.10;99.90
17348;DHT22;8791;50.876;4.342;2023-03-15T07:07:09;5.20;99.90
17348;DHT22;8791;50.876;4.342;2023-03-15T07:09:36;5.30;99.90
17348;DHT22;8791;50.876;4.342;2023-03-15T07:12:03;5.40;99.90
17348;DHT22;8791;50.876;4.342;2023-03-15T07:14:31;5.40;99.90
17348;DHT22;8791;50.876;4.342;2023-03-15T07:16:59;5.40;99.90
17348;DHT22;8791;50.876;4.342;2023-03-15T07:19:25;5.40;99.90
17348;DHT22;8791;50.876;4.342;2023-03-15T07:21:54;5.40;99.90
17348;DHT22;8791;50.876;4.342;2023-03-15T07:24:20;5.40;99.90
17348;DHT22;8791;50.876;4.342;2023-03-15T07:26:47;5.60;99.90
17348;DHT22;8791;50.876;4.342;2023-03-15T07:29:19;5.70;99.90
17348;DHT22;8791;50.876;4.342;2023-03-15T07:31:45;5.90;99.90
17348;DHT22;8791;50.876;4.342;2023-03-15T07:34:12;5.90;99.90
17348;DHT22;8791;50.876;4.342;2023-03-15T07:36:39;5.60;99.90
17348;DHT22;8791;50.876;4.342;2023-03-15T07:39:07;5.80;99.90
17348;DHT22;8791;50.876;4.342;2023-03-15T07:41:35;6.10;99.90
17348;DHT22;8791;50.876;4.342;2023-03-15T07:44:01;6.20;99.90
17348;DHT22;8791;50.876;4.342;2023-03-15T07:46:28;6.10;99.90
17348;DHT22;8791;50.876;4.342;2023-03-15T07:48:55;6.10;99.90
17348;DHT22;8791;50.876;4.342;2023-03-15T07:51:22;6.10;99.90
17348;DHT22;8791;50.876;4.342;2023-03-15T07:53:49;6.00;99.90
17348;DHT22;8791;50.876;4.342;2023-03-15T07:56:17;6.00;99.90
17348;DHT22;8791;50.876;4.342;2023-03-15T07:58:44;6.10;99.90
17348;DHT22;8791;50.876;4.342;2023-03-15T08:01:10;6.30;99.90
17348;DHT22;8791;50.876;4.342;2023-03-15T08:03:37;6.50;99.90
17348;DHT22;8791;50.876;4.342;2023-03-15T08:06:04;6.70;99.90
17348;DHT22;8791;50.876;4.342;2023-03-15T08:08:31;6.60;99.90
17348;DHT22;8791;50.876;4.342;2023-03-15T08:10:58;6.90;99.90
17348;DHT22;8791;50.876;4.342;2023-03-15T08:13:26;6.90;99.90
17348;DHT22;8791;50.876;4.342;2023-03-15T08:15:53;7.10;99.90
17348;DHT22;8791;50.876;4.342;2023-03-15T08:18:20;6.80;99.90
17348;DHT22;8791;50.876;4.342;2023-03-15T08:20:47;6.90;99.90
17348;DHT22;8791;50.876;4.342;2023-03-15T08:23:14;7.10;99.90
17348;DHT22;8791;50.876;4.342;2023-03-15T08:25:41;7.10;99.90
17348;DHT22;8791;50.876;4.342;2023-03-15T08:28:08;7.10;99.90
17348;DHT22;8791;50.876;4.342;2023-03-15T08:30:37;7.00;99.90
17348;DHT22;8791;50.876;4.342;2023-03-15T08:33:04;6.90;99.90
17348;DHT22;8791;50.876;4.342;2023-03-15T08:35:32;6.80;99.90
17348;DHT22;8791;50.876;4.342;2023-03-15T08:37:59;7.10;99.90
17348;DHT22;8791;50.876;4.342;2023-03-15T08:40:27;7.20;99.90
17348;DHT22;8791;50.876;4.342;2023-03-15T08:42:55;7.50;99.90
17348;DHT22;8791;50.876;4.342;2023-03-15T08:45:23;7.70;99.90
17348;DHT22;8791;50.876;4.342;2023-03-15T08:47:53;7.50;99.90
17348;DHT22;8791;50.876;4.342;2023-03-15T08:50:20;7.70;99.90
17348;DHT22;8791;50.876;4.342;2023-03-15T08:52:47;7.80;99.90
17348;DHT22;8791;50.876;4.342;2023-03-15T08:55:14;7.90;99.90
17348;DHT22;8791;50.876;4.342;2023-03-15T08:57:41;7.90;99.90
17348;DHT22;8791;50.876;4.342;2023-03-15T09:00:09;7.60;99.90
17348;DHT22;8791;50.876;4.342;2023-03-15T09:02:40;7.50;99.90
17348;DHT22;8791;50.876;4.342;2023-03-15T09:05:09;7.50;99.90
17348;DHT22;8791;50.876;4.342;2023-03-15T09:07:37;7.70;99.90
17348;DHT22;8791;50.876;4.342;2023-03-15T09:10:05;7.80;99.90
17348;DHT22;8791;50.876;4.342;2023-03-15T09:12:31;8.00;99.90
17348;DHT22;8791;50.876;4.342;2023-03-15T09:14:58;8.00;99.90
17348;DHT22;8791;50.876;4.342;2023-03-15T09:17:25;7.80;99.90
17348;DHT22;8791;50.876;4.342;2023-03-15T09:19:52;7.80;99.90
17348;DHT22;8791;50.876;4.342;2023-03-15T09:22:20;7.90;99.90
17348;DHT22;8791;50.876;4.342;2023-03-15T09:24:47;7.90;99.90
17348;DHT22;8791;50.876;4.342;2023-03-15T09:27:13;7.80;99.90
17348;DHT22;8791;50.876;4.342;2023-03-15T09:29:40;7.70;99.90
17348;DHT22;8791;50.876;4.342;2023-03-15T09:32:07;7.60;99.90
17348;DHT22;8791;50.876;4.342;2023-03-15T09:34:36;7.50;99.90
17348;DHT22;8791;50.876;4.342;2023-03-15T09:37:03;7.20;99.90
17348;DHT22;8791;50.876;4.342;2023-03-15T09:39:31;7.00;99.90
17348;DHT22;8791;50.876;4.342;2023-03-15T09:42:00;7.00;99.90
17348;DHT22;8791;50.876;4.342;2023-03-15T09:44:40;7.10;99.90
17348;DHT22;8791;50.876;4.342;2023-03-15T09:47:27;7.00;99.90
17348;DHT22;8791;50.876;4.342;2023-03-15T09:50:02;7.10;99.90
17348;DHT22;8791;50.876;4.342;2023-03-15T09:52:34;7.40;99.90
17348;DHT22;8791;50.876;4.342;2023-03-15T09:55:11;7.40;99.90
17348;DHT22;8791;50.876;4.342;2023-03-15T09:57:42;7.40;99.90
17348;DHT22;8791;50.876;4.342;2023-03-15T10:00:14;7.50;99.90
17348;DHT22;8791;50.876;4.342;2023-03-15T10:02:47;7.80;99.90
17348;DHT22;8791;50.876;4.342;2023-03-15T10:05:21;7.90;99.90
17348;DHT22;8791;50.876;4.342;2023-03-15T10:07:48;8.00;99.90
17348;DHT22;8791;50.876;4.342;2023-03-15T10:10:18;8.10;99.90
17348;DHT22;8791;50.876;4.342;2023-03-15T10:12:54;7.80;99.90
17348;DHT22;8791;50.876;4.342;2023-03-15T10:15:34;7.70;99.90
17348;DHT22;8791;50.876;4.342;2023-03-15T10:18:16;7.70;99.90
17348;DHT22;8791;50.876;4.342;2023-03-15T10:20:55;7.60;99.90
17348;DHT22;8791;50.876;4.342;2023-03-15T10:23:32;7.50;99.90
17348;DHT22;8791;50.876;4.342;2023-03-15T10:26:05;7.70;99.90
17348;DHT22;8791;50.876;4.342;2023-03-15T10:28:33;7.80;99.90
17348;DHT22;8791;50.876;4.342;2023-03-15T10:31:10;8.10;99.90
17348;DHT22;8791;50.876;4.342;2023-03-15T10:33:38;8.30;99.90
17348;DHT22;8791;50.876;4.342;2023-03-15T10:36:13;8.30;99.90
17348;DHT22;8791;50.876;4.342;2023-03-15T10:38:40;8.50;99.90
17348;DHT22;8791;50.876;4.342;2023-03-15T10:41:10;8.60;99.90
17348;DHT22;8791;50.876;4.342;2023-03-15T10:43:37;8.80;99.90
17348;DHT22;8791;50.876;4.342;2023-03-15T10:46:06;8.50;99.90
17348;DHT22;8791;50.876;4.342;2023-03-15T10:48:34;8.60;99.90
17348;DHT22;8791;50.876;4.342;2023-03-15T10:51:04;8.60;99.90
17348;DHT22;8791;50.876;4.342;2023-03-15T10:53:32;8.60;99.90
17348;DHT22;8791;50.876;4.342;2023-03-15T10:56:00;8.80;99.90
17348;DHT22;8791;50.876;4.342;2023-03-15T10:58:39;8.80;99.90
17348;DHT22;8791;50.876;4.342;2023-03-15T11:01:23;8.80;99.90
17348;DHT22;8791;50.876;4.342;2023-03-15T11:04:01;8.90;99.90
17348;DHT22;8791;50.876;4.342;2023-03-15T11:06:28;9.00;99.90
17348;DHT22;8791;50.876;4.342;2023-03-15T11:09:07;9.10;99.90
17348;DHT22;8791;50.876;4.342;2023-03-15T11:11:56;9.10;99.90
17348;DHT22;8791;50.876;4.342;2023-03-15T11:14:25;9.10;99.90
17348;DHT22;8791;50.876;4.342;2023-03-15T11:16:55;9.30;99.90
17348;DHT22;8791;50.876;4.342;2023-03-15T11:19:25;9.40;99.90
17348;DHT22;8791;50.876;4.342;2023-03-15T11:21:54;9.30;99.90
17348;DHT22;8791;50.876;4.342;2023-03-15T11:24:24;9.50;99.90
17348;DHT22;8791;50.876;4.342;2023-03-15T11:26:52;9.50;99.90
17348;DHT22;8791;50.876;4.342;2023-03-15T11:29:23;9.30;99.90
17348;DHT22;8791;50.876;4.342;2023-03-15T11:31:54;9.20;99.90
17348;DHT22;8791;50.876;4.342;2023-03-15T11:34:26;9.40;99.90
17348;DHT22;8791;50.876;4.342;2023-03-15T11:36:59;9.50;99.90
17348;DHT22;8791;50.876;4.342;2023-03-15T11:39:34;9.80;99.90
17348;DHT22;8791;50.876;4.342;2023-03-15T11:42:04;9.90;99.90
17348;DHT22;8791;50.876;4.342;2023-03-15T11:44:36;9.80;99.90
17348;DHT22;8791;50.876;4.342;2023-03-15T11:47:10;9.70;99.90
17348;DHT22;8791;50.876;4.342;2023-03-15T11:49:43;9.80;99.90
17348;DHT22;8791;50.876;4.342;2023-03-15T11:52:12;9.90;99.90
17348;DHT22;8791;50.876;4.342;2023-03-15T11:54:41;9.80;99.90
17348;DHT22;8791;50.876;4.342;2023-03-15T11:57:38;9.70;99.90
17348;DHT22;8791;50.876;4.342;2023-03-15T12:08:51;9.50;99.90
17348;DHT22;8791;50.876;4.342;2023-03-15T12:11:39;9.60;99.90
17348;DHT22;8791;50.876;4.342;2023-03-15T12:14:26;10.00;99.90
17348;DHT22;8791;50.876;4.342;2023-03-15T12:17:37;9.80;99.90
17348;DHT22;8791;50.876;4.342;2023-03-15T12:20:19;9.90;99.90
17348;DHT22;8791;50.876;4.342;2023-03-15T12:22:50;10.30;99.90
17348;DHT22;8791;50.876;4.342;2023-03-15T12:25:21;10.30;99.90
17348;DHT22;8791;50.876;4.342;2023-03-15T12:27:49;10.40;99.90
17348;DHT22;8791;50.876;4.342;2023-03-15T12:30:21;10.20;99.90
17348;DHT22;8791;50.876;4.342;2023-03-15T12:32:52;10.30;99.90
17348;DHT22;8791;50.876;4.342;2023-03-15T12:35:22;10.30;99.90
17348;DHT22;8791;50.876;4.342;2023-03-15T12:37:51;10.00;99.90
17348;DHT22;8791;50.876;4.342;2023-03-15T12:40:39;10.10;99.90
17348;DHT22;8791;50.876;4.342;2023-03-15T12:43:06;10.00;99.90
17348;DHT22;8791;50.876;4.342;2023-03-15T12:45:42;10.20;99.90
17348;DHT22;8791;50.876;4.342;2023-03-15T12:48:26;10.20;99.90
17348;DHT22;8791;50.876;4.342;2023-03-15T12:50:55;10.50;99.90
17348;DHT22;8791;50.876;4.342;2023-03-15T12:53:28;10.70;99.90
17348;DHT22;8791;50.876;4.342;2023-03-15T12:56:29;11.00;99.90
17348;DHT22;8791;50.876;4.342;2023-03-15T12:59:02;10.70;99.90
17348;DHT22;8791;50.876;4.342;2023-03-15T13:01:30;10.70;99.90
17348;DHT22;8791;50.876;4.342;2023-03-15T13:04:01;10.50;99.90
17348;DHT22;8791;50.876;4.342;2023-03-15T13:06:37;10.60;99.90
17348;DHT22;8791;50.876;4.342;2023-03-15T13:09:15;10.70;99.90
17348;DHT22;8791;50.876;4.342;2023-03-15T13:11:49;10.60;99.90
17348;DHT22;8791;50.876;4.342;2023-03-15T13:14:31;10.50;99.90
17348;DHT22;8791;50.876;4.342;2023-03-15T13:17:05;10.50;99.90
17348;DHT22;8791;50.876;4.342;2023-03-15T13:19:39;10.60;99.90
17348;DHT22;8791;50.876;4.342;2023-03-15T13:22:13;10.80;99.90
17348;DHT22;8791;50.876;4.342;2023-03-15T13:24:50;10.90;99.90
17348;DHT22;8791;50.876;4.342;2023-03-15T13:27:33;11.20;99.90
17348;DHT22;8791;50.876;4.342;2023-03-15T13:30:28;11.20;99.90
17348;DHT22;8791;50.876;4.342;2023-03-15T13:33:05;11.50;99.90
17348;DHT22;8791;50.876;4.342;2023-03-15T13:35:41;11.40;99.90
17348;DHT22;8791;50.876;4.342;2023-03-15T13:38:08;11.40;99.90
17348;DHT22;8791;50.876;4.342;2023-03-15T13:40:48;11.20;99.90
17348;DHT22;8791;50.876;4.342;2023-03-15T13:43:15;11.30;99.90
17348;DHT22;8791;50.876;4.342;2023-03-15T13:45:42;11.30;99.90
17348;DHT22;8791;50.876;4.342;2023-03-15T13:48:09;11.10;99.90
17348;DHT22;8791;50.876;4.342;2023-03-15T13:50:37;10.80;99.90
17348;DHT22;8791;50.876;4.342;2023-03-15T13:53:04;10.90;99.90
17348;DHT22;8791;50.876;4.342;2023-03-15T13:55:33;11.20;99.90
17348;DHT22;8791;50.876;4.342;2023-03-15T13:58:05;11.30;99.90
17348;DHT22;8791;50.876;4.342;2023-03-15T14:00:33;11.30;99.90
17348;DHT22;8791;50.876;4.342;2023-03-15T14:03:03;10.80;99.90
17348;DHT22;8791;50.876;4.342;2023-03-15T14:05:33;10.60;99.90
17348;DHT22;8791;50.876;4.342;2023-03-15T14:08:04;10.60;99.90
17348;DHT22;8791;50.876;4.342;2023-03-15T14:10:32;10.80;99.90
17348;DHT22;8791;50.876;4.342;2023-03-15T14:13:15;10.30;99.90
17348;DHT22;8791;50.876;4.342;2023-03-15T14:15:47;10.50;99.90
17348;DHT22;8791;50.876;4.342;2023-03-15T14:18:15;10.60;99.90
17348;DHT22;8791;50.876;4.342;2023-03-15T14:20:45;10.70;99.90
17348;DHT22;8791;50.876;4.342;2023-03-15T14:23:16;11.00;99.90
17348;DHT22;8791;50.876;4.342;2023-03-15T14:25:50;11.20;99.90
17348;DHT22;8791;50.876;4.342;2023-03-15T14:28:18;11.30;99.90
17348;DHT22;8791;50.876;4.342;2023-03-15T14:30:51;11.00;99.90
17348;DHT22;8791;50.876;4.342;2023-03-15T14:33:24;11.00;99.90
17348;DHT22;8791;50.876;4.342;2023-03-15T14:35:53;11.30;99.90
17348;DHT22;8791;50.876;4.342;2023-03-15T14:38:25;11.10;99.90
17348;DHT22;8791;50.876;4.342;2023-03-15T14:40:53;10.80;99.90
17348;DHT22;8791;50.876;4.342;2023-03-15T14:43:20;10.80;99.90
17348;DHT22;8791;50.876;4.342;2023-03-15T14:45:47;10.80;99.90
17348;DHT22;8791;50.876;4.342;2023-03-15T14:48:20;11.00;99.90
17348;DHT22;8791;50.876;4.342;2023-03-15T14:50:48;11.00;99.90
17348;DHT22;8791;50.876;4.342;2023-03-15T14:53:17;11.10;99.90
17348;DHT22;8791;50.876;4.342;2023-03-15T14:55:46;11.00;99.90
17348;DHT22;8791;50.876;4.342;2023-03-15T14:58:15;11.00;99.90
17348;DHT22;8791;50.876;4.342;2023-03-15T15:00:44;10.60;99.90
17348;DHT22;8791;50.876;4.342;2023-03-15T15:03:16;10.60;99.90
17348;DHT22;8791;50.876;4.342;2023-03-15T15:05:44;10.90;99.90
17348;DHT22;8791;50.876;4.342;2023-03-15T15:08:13;11.10;99.90
17348;DHT22;8791;50.876;4.342;2023-03-15T15:10:42;11.00;99.90
17348;DHT22;8791;50.876;4.342;2023-03-15T15:13:14;10.90;99.90
17348;DHT22;8791;50.876;4.342;2023-03-15T15:15:42;10.90;99.90
17348;DHT22;8791;50.876;4.342;2023-03-15T15:18:09;11.00;99.90
17348;DHT22;8791;50.876;4.342;2023-03-15T15:20:36;10.90;99.90
17348;DHT22;8791;50.876;4.342;2023-03-15T15:23:03;11.00;99.90
17348;DHT22;8791;50.876;4.342;2023-03-15T15:25:30;11.10;99.90
17348;DHT22;8791;50.876;4.342;2023-03-15T15:27:58;11.00;99.90
17348;DHT22;8791;50.876;4.342;2023-03-15T15:30:26;10.90;99.90
17348;DHT22;8791;50.876;4.342;2023-03-15T15:32:54;10.90;99.90
17348;DHT22;8791;50.876;4.342;2023-03-15T15:35:25;10.80;99.90
17348;DHT22;8791;50.876;4.342;2023-03-15T15:37:53;10.60;99.90
17348;DHT22;8791;50.876;4.342;2023-03-15T15:40:25;10.70;99.90
17348;DHT22;8791;50.876;4.342;2023-03-15T15:42:53;11.00;99.90
17348;DHT22;8791;50.876;4.342;2023-03-15T15:45:20;11.00;99.90
17348;DHT22;8791;50.876;4.342;2023-03-15T15:47:51;10.70;99.90
17348;DHT22;8791;50.876;4.342;2023-03-15T15:50:19;10.80;99.90
17348;DHT22;8791;50.876;4.342;2023-03-15T15:52:47;10.90;99.90
17348;DHT22;8791;50.876;4.342;2023-03-15T15:55:16;10.90;99.90
17348;DHT22;8791;50.876;4.342;2023-03-15T15:57:44;10.70;99.90
17348;DHT22;8791;50.876;4.342;2023-03-15T16:00:14;10.70;99.90
17348;DHT22;8791;50.876;4.342;2023-03-15T16:02:42;10.40;99.90
17348;DHT22;8791;50.876;4.342;2023-03-15T16:05:11;10.60;99.90
17348;DHT22;8791;50.876;4.342;2023-03-15T16:07:40;10.60;99.90
17348;DHT22;8791;50.876;4.342;2023-03-15T16:10:10;10.80;99.90
17348;DHT22;8791;50.876;4.342;2023-03-15T16:12:41;11.00;99.90
17348;DHT22;8791;50.876;4.342;2023-03-15T16:15:10;10.80;99.90
17348;DHT22;8791;50.876;4.342;2023-03-15T16:17:37;10.40;99.90
17348;DHT22;8791;50.876;4.342;2023-03-15T16:20:06;10.40;99.90